Impacts TAF Board INFO
FOR SITUATIONAL AWARENESS. NOT TO BE USED FOR FLIGHT PLANNING PURPOSES.
IDs:

KPHL - Philadelphia Intl, PA, US

Issued at 1727 UTC 20 Jan 2018
Updated at 1859 UTC 20 Jan 2018
Potential Impact None Slight Moderate High
Time<<21/07Z 21/08Z 21/09Z 21/10Z 21/11Z 21/12Z 21/13Z 21/14Z 21/15Z 21/16Z 21/17Z 21/18Z 21/19Z>>
Type PRVL PRVL PRVL PRVL PRVL PRVL PRVL PRVL PRVL PRVL PRVL PRVL PRVL
VIS >6 >6 >6 >6 >6 >6 >6 >6 >6 >6 >6 >6 >6
CIG -- 200 200 200 200 200 200 200 200 200 200 70 70
Cover SCT BKN BKN BKN BKN BKN BKN BKN BKN BKN BKN BKN BKN
FltCat VFR VFR VFR VFR VFR VFR VFR VFR VFR VFR VFR VFR VFR
WX -- -- -- -- -- -- -- -- -- -- -- -- --
WDir 270 290 290 290 290 290 290 290 290 290 290 240 240
WSpd 8 3 3 3 3 3 3 3 3 3 3 5 5
WGst -- -- -- -- -- -- -- -- -- -- -- -- --

Raw TAF
KPHL 201727Z 2018/2124 25012G20KT P6SM SCT250
  FM202100 27008KT P6SM SCT250
  FM210800 29003KT P6SM BKN200
  FM211800 24005KT P6SM BKN070


METAR Board
Radar Display
Forecast Discussion

FOR SITUATIONAL AWARENESS. NOT TO BE USED FOR FLIGHT PLANNING PURPOSES.